createdAt,value
2019-05-03T00:00:55.530Z,305.81
2019-05-03T00:01:55.536Z,304.56
2019-05-03T00:02:55.515Z,305.28
2019-05-03T00:03:55.491Z,305.32
2019-05-03T00:04:55.483Z,305.19
2019-05-03T00:05:55.492Z,304.75
2019-05-03T00:06:55.487Z,305.15
2019-05-03T00:07:55.450Z,305.07
2019-05-03T00:08:55.433Z,304.91
2019-05-03T00:09:55.421Z,305.05
2019-05-03T00:10:55.414Z,305.24
2019-05-03T00:11:55.409Z,305.40
2019-05-03T00:12:55.417Z,304.96
2019-05-03T00:13:55.372Z,305.35
2019-05-03T00:14:55.370Z,305.23
2019-05-03T00:15:55.366Z,304.99
2019-05-03T00:16:55.354Z,305.50
2019-05-03T00:17:55.378Z,305.55
2019-05-03T00:18:55.322Z,304.72
2019-05-03T00:19:55.318Z,305.06
2019-05-03T00:20:55.296Z,305.38
2019-05-03T00:21:55.296Z,305.46
2019-05-03T00:22:55.305Z,305.27
2019-05-03T00:23:55.291Z,304.70
2019-05-03T00:25:05.366Z,305.20
2019-05-03T00:25:56.245Z,305.16
2019-05-03T00:26:55.240Z,305.30
2019-05-03T00:27:55.244Z,304.60
2019-05-03T00:28:55.217Z,305.03
2019-05-03T00:29:55.220Z,304.99
2019-05-03T00:30:55.195Z,305.05
2019-05-03T00:31:55.175Z,305.24
2019-05-03T00:32:55.193Z,305.27
2019-05-03T00:33:55.149Z,304.96
2019-05-03T00:34:55.153Z,304.87
2019-05-03T00:35:55.142Z,305.28
2019-05-03T00:36:55.129Z,305.45
2019-05-03T00:37:55.137Z,305.84
2019-05-03T00:38:55.104Z,304.88
2019-05-03T00:39:55.086Z,305.12
2019-05-03T00:40:55.087Z,305.50
2019-05-03T00:41:55.067Z,305.42
2019-05-03T00:42:55.083Z,305.29
2019-05-03T00:43:55.057Z,304.67
2019-05-03T00:44:55.038Z,304.43
2019-05-03T00:45:55.031Z,305.02
2019-05-03T00:46:55.021Z,304.91
2019-05-03T00:47:55.030Z,305.58
2019-05-03T00:48:55.008Z,304.89
2019-05-03T00:49:54.988Z,305.38
2019-05-03T00:50:54.980Z,305.19
2019-05-03T00:51:54.962Z,305.64
2019-05-03T00:52:54.961Z,304.89
2019-05-03T00:53:54.936Z,305.16
2019-05-03T00:54:54.933Z,305.02
2019-05-03T00:55:54.928Z,304.92
2019-05-03T00:56:54.913Z,304.77
2019-05-03T00:57:54.915Z,305.11
2019-05-03T00:58:54.870Z,305.20
2019-05-03T00:59:54.865Z,305.19
2019-05-03T01:00:54.873Z,304.83
2019-05-03T01:01:54.855Z,304.82
2019-05-03T01:02:54.849Z,304.79
2019-05-03T01:03:54.831Z,305.10
2019-05-03T01:04:54.822Z,305.09
2019-05-03T01:05:54.809Z,305.43
2019-05-03T01:06:54.813Z,305.34
2019-05-03T01:07:54.824Z,305.08
2019-05-03T01:08:54.777Z,305.43
2019-05-03T01:09:54.777Z,305.22
2019-05-03T01:10:54.753Z,305.02
2019-05-03T01:11:54.739Z,305.11
2019-05-03T01:12:54.728Z,305.22
2019-05-03T01:13:54.735Z,305.04
2019-05-03T01:14:54.717Z,305.12
2019-05-03T01:15:54.717Z,304.84
2019-05-03T01:16:54.675Z,305.14
2019-05-03T01:17:54.690Z,304.94
2019-05-03T01:18:54.670Z,305.04
2019-05-03T01:19:54.652Z,305.05
2019-05-03T01:20:54.649Z,304.76
2019-05-03T01:21:54.637Z,305.12
2019-05-03T01:22:54.616Z,304.71
2019-05-03T01:23:54.632Z,305.04
2019-05-03T01:24:54.596Z,305.16
2019-05-03T01:25:54.577Z,304.58
2019-05-03T01:26:54.580Z,304.74
2019-05-03T01:27:54.566Z,304.97
2019-05-03T01:28:54.577Z,304.73
2019-05-03T01:29:54.540Z,304.55
2019-05-03T01:30:54.529Z,305.53
2019-05-03T01:31:54.515Z,305.11
2019-05-03T01:32:54.543Z,304.88
2019-05-03T01:33:54.539Z,304.85
2019-05-03T01:34:54.481Z,305.09
2019-05-03T01:35:54.477Z,304.80
2019-05-03T01:36:54.464Z,304.73
2019-05-03T01:37:54.450Z,305.28
2019-05-03T01:38:54.478Z,304.98
2019-05-03T01:39:54.435Z,304.82
2019-05-03T01:40:54.419Z,304.81
2019-05-03T01:41:54.423Z,304.61
2019-05-03T01:42:54.393Z,305.20
2019-05-03T01:43:54.380Z,304.76
2019-05-03T01:44:54.399Z,304.59
2019-05-03T01:45:54.366Z,305.00
2019-05-03T01:46:54.355Z,304.91
2019-05-03T01:47:54.353Z,304.88
2019-05-03T01:48:54.338Z,305.39
2019-05-03T01:49:54.335Z,304.91
2019-05-03T01:50:54.317Z,304.77
2019-05-03T01:51:54.310Z,305.19
2019-05-03T01:52:54.292Z,304.91
2019-05-03T01:53:54.302Z,304.17
2019-05-03T01:54:54.267Z,305.26
2019-05-03T01:55:54.254Z,304.64
2019-05-03T01:56:58.688Z,304.88
2019-05-03T01:57:54.221Z,304.76
2019-05-03T01:58:54.248Z,304.83
2019-05-03T01:59:54.215Z,305.32
2019-05-03T02:00:54.210Z,304.99
2019-05-03T02:01:54.192Z,305.15
2019-05-03T02:02:54.183Z,304.54
2019-05-03T02:03:54.173Z,304.72
2019-05-03T02:04:54.174Z,304.82
2019-05-03T02:05:54.152Z,305.38
2019-05-03T02:06:54.135Z,305.06
2019-05-03T02:07:54.119Z,304.91
2019-05-03T02:08:54.140Z,305.02
2019-05-03T02:09:54.097Z,305.17
2019-05-03T02:10:54.105Z,304.50
2019-05-03T02:11:54.081Z,304.99
2019-05-03T02:12:54.066Z,304.15
2019-05-03T02:13:54.060Z,304.84
2019-05-03T02:14:54.063Z,305.21
2019-05-03T02:15:54.026Z,304.78
2019-05-03T02:16:54.023Z,304.35
2019-05-03T02:17:54.007Z,304.53
2019-05-03T02:18:54.005Z,304.72
2019-05-03T02:19:54.016Z,304.97
2019-05-03T02:20:53.976Z,304.70
2019-05-03T02:21:53.974Z,304.40
2019-05-03T02:22:53.960Z,304.68
2019-05-03T02:23:53.945Z,305.05
2019-05-03T02:24:53.961Z,303.70
2019-05-03T02:25:56.760Z,304.35
2019-05-03T02:26:53.908Z,304.44
2019-05-03T02:27:53.910Z,305.11
2019-05-03T02:28:53.885Z,305.00
2019-05-03T02:29:53.896Z,304.18
2019-05-03T02:30:53.878Z,305.25
2019-05-03T02:31:53.872Z,304.97
2019-05-03T02:32:53.856Z,304.85
2019-05-03T02:33:53.839Z,304.52
2019-05-03T02:34:53.850Z,304.97
2019-05-03T02:35:53.808Z,304.73
2019-05-03T02:36:54.010Z,304.83
2019-05-03T02:37:53.801Z,305.21
2019-05-03T02:38:53.841Z,304.37
2019-05-03T02:39:53.789Z,304.84
2019-05-03T02:40:53.757Z,304.70
2019-05-03T02:41:59.754Z,304.80
2019-05-03T02:42:55.289Z,305.02
2019-05-03T02:43:56.062Z,304.60
2019-05-03T02:44:55.359Z,304.60
2019-05-03T02:45:56.515Z,304.64
2019-05-03T02:46:56.275Z,304.74
2019-05-03T02:47:55.416Z,304.46
2019-05-03T02:48:55.714Z,305.02
2019-05-03T02:49:56.005Z,305.36
2019-05-03T02:50:56.043Z,304.60
2019-05-03T02:51:55.489Z,304.19
2019-05-03T02:52:55.177Z,305.20
2019-05-03T02:53:56.739Z,304.46
2019-05-03T02:54:55.399Z,304.83
2019-05-03T02:55:55.937Z,305.06
2019-05-03T02:56:55.970Z,304.44
2019-05-03T02:57:56.038Z,304.69
2019-05-03T02:58:55.757Z,304.71
2019-05-03T02:59:54.935Z,304.67
2019-05-03T03:00:56.116Z,304.70
2019-05-03T03:01:55.812Z,304.37
2019-05-03T03:02:55.653Z,304.68
2019-05-03T03:03:56.049Z,304.73
2019-05-03T03:04:56.172Z,304.49
2019-05-03T03:05:55.950Z,304.39
2019-05-03T03:06:55.626Z,304.97
2019-05-03T03:07:55.738Z,304.65
2019-05-03T03:08:55.989Z,304.41
2019-05-03T03:09:55.636Z,305.03
2019-05-03T03:10:55.585Z,305.00
2019-05-03T03:11:55.735Z,304.62
2019-05-03T03:12:55.274Z,304.39
2019-05-03T03:13:55.209Z,304.80
2019-05-03T03:14:55.107Z,304.57
2019-05-03T03:15:55.383Z,304.86
2019-05-03T03:16:55.825Z,304.90
2019-05-03T03:17:55.818Z,304.61
2019-05-03T03:18:55.693Z,304.50
2019-05-03T03:19:55.211Z,304.48
2019-05-03T03:20:55.229Z,304.53
2019-05-03T03:21:56.105Z,304.91
2019-05-03T03:22:55.511Z,304.20
2019-05-03T03:23:55.910Z,305.13
2019-05-03T03:24:55.744Z,304.73
2019-05-03T03:25:55.620Z,304.79
2019-05-03T03:26:56.314Z,305.05
2019-05-03T03:27:55.622Z,304.65
2019-05-03T03:28:55.711Z,304.73
2019-05-03T03:29:55.268Z,304.43
2019-05-03T03:30:57.185Z,304.62
2019-05-03T03:31:57.450Z,304.33
2019-05-03T03:32:57.794Z,304.75
2019-05-03T03:33:58.877Z,304.47
2019-05-03T03:35:00.600Z,304.38
2019-05-03T03:36:01.279Z,304.56
2019-05-03T03:37:00.785Z,304.44
2019-05-03T03:37:55.987Z,304.57
2019-05-03T03:38:55.396Z,305.19
2019-05-03T03:39:53.106Z,304.73
2019-05-03T03:40:56.419Z,304.54
2019-05-03T03:41:55.748Z,304.33
2019-05-03T03:42:55.531Z,304.47
2019-05-03T03:43:55.627Z,304.71
2019-05-03T03:44:53.049Z,304.61
2019-05-03T03:45:55.588Z,304.42
2019-05-03T03:46:55.846Z,304.23
2019-05-03T03:47:55.797Z,304.47
2019-05-03T03:48:55.381Z,304.63
2019-05-03T03:49:55.215Z,304.82
2019-05-03T03:50:55.911Z,304.45
2019-05-03T03:51:52.974Z,303.75
2019-05-03T03:52:55.794Z,305.21
2019-05-03T03:53:55.448Z,304.85
2019-05-03T03:54:55.286Z,304.80
2019-05-03T03:55:52.939Z,304.80
2019-05-03T03:57:02.165Z,304.64
2019-05-03T03:57:55.663Z,304.85
2019-05-03T03:58:55.378Z,304.46
2019-05-03T03:59:52.896Z,304.79
2019-05-03T04:00:55.359Z,304.62
2019-05-03T04:01:55.095Z,304.87
2019-05-03T04:02:55.308Z,304.25
2019-05-03T04:03:52.838Z,304.51
2019-05-03T04:04:52.828Z,304.21
2019-05-03T04:05:55.387Z,304.16
2019-05-03T04:06:55.718Z,304.55
2019-05-03T04:07:56.065Z,304.84
2019-05-03T04:08:52.811Z,304.78
2019-05-03T04:09:52.778Z,304.48
2019-05-03T04:10:55.721Z,304.96
2019-05-03T04:11:52.767Z,304.68
2019-05-03T04:12:52.753Z,304.42
2019-05-03T04:13:52.742Z,304.72
2019-05-03T04:14:52.733Z,304.69
2019-05-03T04:15:52.722Z,304.69
2019-05-03T04:16:52.729Z,304.65
2019-05-03T04:17:52.726Z,304.80
2019-05-03T04:18:55.008Z,304.48
2019-05-03T04:19:52.686Z,304.62
2019-05-03T04:20:52.658Z,305.09
2019-05-03T04:21:52.676Z,304.98
2019-05-03T04:22:52.634Z,304.68
2019-05-03T04:23:55.472Z,304.49
2019-05-03T04:24:55.142Z,304.58
2019-05-03T04:25:52.605Z,304.81
2019-05-03T04:26:52.615Z,304.89
2019-05-03T04:27:52.582Z,304.82
2019-05-03T04:28:52.565Z,304.97
2019-05-03T04:29:52.558Z,304.91
2019-05-03T04:30:55.206Z,305.27
2019-05-03T04:31:52.555Z,304.74
2019-05-03T04:32:52.537Z,305.36
2019-05-03T04:33:52.534Z,304.69
2019-05-03T04:34:52.510Z,304.77
2019-05-03T04:35:52.497Z,305.34
2019-05-03T04:36:52.495Z,305.09
2019-05-03T04:37:52.468Z,305.17
2019-05-03T04:38:52.463Z,304.96
2019-05-03T04:39:52.485Z,305.42
2019-05-03T04:40:52.442Z,304.80
2019-05-03T04:41:52.453Z,304.91
2019-05-03T04:42:52.405Z,305.32
2019-05-03T04:43:55.235Z,304.94
2019-05-03T04:44:52.408Z,305.45
2019-05-03T04:45:52.392Z,305.12
2019-05-03T04:46:56.000Z,305.38
2019-05-03T04:47:55.666Z,305.47
2019-05-03T04:48:52.354Z,305.14
2019-05-03T04:49:52.342Z,305.61
2019-05-03T04:50:54.967Z,305.07
2019-05-03T04:51:52.322Z,305.17
2019-05-03T04:52:52.328Z,305.68
2019-05-03T04:53:52.301Z,305.36
2019-05-03T04:54:52.281Z,305.14
2019-05-03T04:55:52.267Z,305.30
2019-05-03T04:56:52.283Z,305.34
2019-05-03T04:57:52.275Z,305.35
2019-05-03T04:58:52.229Z,305.64
2019-05-03T04:59:52.242Z,305.61
2019-05-03T05:00:52.197Z,305.14
2019-05-03T05:01:52.189Z,305.37
2019-05-03T05:02:54.876Z,305.66
2019-05-03T05:03:52.178Z,305.08
2019-05-03T05:04:52.167Z,305.09
2019-05-03T05:05:52.154Z,305.02
2019-05-03T05:06:52.127Z,304.62
2019-05-03T05:07:52.116Z,305.67
2019-05-03T05:08:52.134Z,305.02
2019-05-03T05:09:52.104Z,304.90
2019-05-03T05:10:52.096Z,304.95
2019-05-03T05:11:52.097Z,305.42
2019-05-03T05:12:52.099Z,305.43
2019-05-03T05:13:52.058Z,305.19
2019-05-03T05:14:52.041Z,305.19
2019-05-03T05:15:52.038Z,304.84
2019-05-03T05:16:52.030Z,304.85
2019-05-03T05:17:52.036Z,305.09
2019-05-03T05:18:51.999Z,304.98
2019-05-03T05:19:52.223Z,304.87
2019-05-03T05:20:51.974Z,305.66
2019-05-03T05:21:51.995Z,305.12
2019-05-03T05:22:51.994Z,304.60
2019-05-03T05:23:51.958Z,305.08
2019-05-03T05:24:51.940Z,304.95
2019-05-03T05:25:51.944Z,305.10
2019-05-03T05:26:51.916Z,304.86
2019-05-03T05:27:54.872Z,305.71
2019-05-03T05:28:51.911Z,305.35
2019-05-03T05:29:51.881Z,305.38
2019-05-03T05:30:51.873Z,306.05
2019-05-03T05:31:51.863Z,306.06
2019-05-03T05:32:51.855Z,305.56
2019-05-03T05:33:51.861Z,305.68
2019-05-03T05:34:51.835Z,305.72
2019-05-03T05:35:51.823Z,305.60
2019-05-03T05:36:51.813Z,305.86
2019-05-03T05:37:51.815Z,306.07
2019-05-03T05:38:51.782Z,305.84
2019-05-03T05:39:51.786Z,306.34
2019-05-03T05:40:51.762Z,306.21
2019-05-03T05:41:51.742Z,306.13
2019-05-03T05:42:51.792Z,306.18
2019-05-03T05:43:51.727Z,306.12
2019-05-03T05:44:51.725Z,306.34
2019-05-03T05:45:51.717Z,306.25
2019-05-03T05:46:51.685Z,306.06
2019-05-03T05:47:51.682Z,306.92
2019-05-03T05:48:52.125Z,306.65
2019-05-03T05:49:51.702Z,306.20
2019-05-03T05:50:51.656Z,306.95
2019-05-03T05:51:51.641Z,306.75
2019-05-03T05:52:51.620Z,306.34
2019-05-03T05:53:51.611Z,306.29
2019-05-03T05:54:51.627Z,306.45
2019-05-03T05:55:51.617Z,306.17
2019-05-03T05:56:51.591Z,305.98
2019-05-03T05:58:02.011Z,306.03
2019-05-03T05:58:52.562Z,306.20
2019-05-03T05:59:51.548Z,305.95
2019-05-03T06:00:51.568Z,306.25
2019-05-03T06:01:51.525Z,305.94
2019-05-03T06:02:51.529Z,306.17
2019-05-03T06:03:51.512Z,306.28
2019-05-03T06:04:51.496Z,306.37
2019-05-03T06:05:51.480Z,306.66
2019-05-03T06:06:51.501Z,306.83
2019-05-03T06:07:51.473Z,307.26
2019-05-03T06:08:51.455Z,306.91
2019-05-03T06:09:51.448Z,307.00
2019-05-03T06:10:51.447Z,307.11
2019-05-03T06:11:51.432Z,306.92
2019-05-03T06:12:51.397Z,306.83
2019-05-03T06:13:51.391Z,307.10
2019-05-03T06:14:51.402Z,307.74
2019-05-03T06:15:51.376Z,306.88
2019-05-03T06:16:51.378Z,306.72
2019-05-03T06:17:51.377Z,306.46
2019-05-03T06:18:51.337Z,306.39
2019-05-03T06:19:51.325Z,306.68
2019-05-03T06:20:51.319Z,306.89
2019-05-03T06:21:51.336Z,306.55
2019-05-03T06:22:51.335Z,306.11
2019-05-03T06:23:51.286Z,306.65
2019-05-03T06:24:51.318Z,306.65
2019-05-03T06:25:51.292Z,306.03
2019-05-03T06:26:51.256Z,306.84
2019-05-03T06:27:51.244Z,305.94
2019-05-03T06:28:51.251Z,305.75
2019-05-03T06:29:51.243Z,305.78
2019-05-03T06:30:51.199Z,306.14
2019-05-03T06:31:51.187Z,305.47
2019-05-03T06:32:51.188Z,305.38
2019-05-03T06:33:52.572Z,305.78
2019-05-03T06:34:51.175Z,305.59
2019-05-03T06:35:51.155Z,305.43
2019-05-03T06:36:51.533Z,305.17
2019-05-03T06:37:51.135Z,305.18
2019-05-03T06:38:51.136Z,305.18
2019-05-03T06:39:51.139Z,304.99
2019-05-03T06:40:51.094Z,305.74
2019-05-03T06:41:51.094Z,305.37
2019-05-03T06:42:54.790Z,305.50
2019-05-03T06:43:52.053Z,305.67
2019-05-03T06:44:51.080Z,305.79
2019-05-03T06:45:51.044Z,305.61
2019-05-03T06:46:51.028Z,304.73
2019-05-03T06:47:51.024Z,305.02
2019-05-03T06:48:51.011Z,304.45
2019-05-03T06:49:51.005Z,304.52
2019-05-03T06:50:51.024Z,304.93
2019-05-03T06:51:50.990Z,305.15
2019-05-03T06:52:50.967Z,304.10
2019-05-03T06:53:50.951Z,304.84
2019-05-03T06:54:50.951Z,304.52
2019-05-03T06:55:50.929Z,304.33
2019-05-03T06:56:50.966Z,304.72
2019-05-03T06:57:50.911Z,305.10
2019-05-03T06:58:50.910Z,304.80
2019-05-03T06:59:50.892Z,303.97
2019-05-03T07:00:50.892Z,303.92
2019-05-03T07:01:50.890Z,303.82
2019-05-03T07:02:50.870Z,303.62
2019-05-03T07:03:50.839Z,303.25
2019-05-03T07:04:50.845Z,303.37
2019-05-03T07:05:50.820Z,302.99
2019-05-03T07:06:50.836Z,303.07
2019-05-03T07:07:50.806Z,302.51
2019-05-03T07:08:50.791Z,303.07
2019-05-03T07:09:50.779Z,302.66
2019-05-03T07:10:50.812Z,302.85
2019-05-03T07:11:50.786Z,303.96
2019-05-03T07:12:50.777Z,304.44
2019-05-03T07:13:50.741Z,304.48
2019-05-03T07:14:50.725Z,304.06
2019-05-03T07:15:50.710Z,304.48
2019-05-03T07:16:50.698Z,304.05
2019-05-03T07:17:50.704Z,304.65
2019-05-03T07:18:50.672Z,304.45
2019-05-03T07:19:50.676Z,304.27
2019-05-03T07:20:50.649Z,304.01
2019-05-03T07:21:50.653Z,303.84
2019-05-03T07:22:50.647Z,303.20
2019-05-03T07:23:50.631Z,303.37
2019-05-03T07:24:50.606Z,303.47
2019-05-03T07:25:50.606Z,303.18
2019-05-03T07:26:50.617Z,302.78
2019-05-03T07:27:50.586Z,302.55
2019-05-03T07:28:50.573Z,303.09
2019-05-03T07:29:50.577Z,302.70
2019-05-03T07:30:50.544Z,302.88
2019-05-03T07:31:50.558Z,302.65
2019-05-03T07:32:50.571Z,302.01
2019-05-03T07:33:50.499Z,302.45
2019-05-03T07:34:50.502Z,303.15
2019-05-03T07:35:50.497Z,303.11
2019-05-03T07:36:50.491Z,303.22
2019-05-03T07:37:50.487Z,304.69
2019-05-03T07:38:50.449Z,305.01
2019-05-03T07:39:50.446Z,305.37
2019-05-03T07:40:50.452Z,305.16
2019-05-03T07:41:50.454Z,304.88
2019-05-03T07:42:50.408Z,304.57
2019-05-03T07:43:50.402Z,304.53
2019-05-03T07:44:50.388Z,304.05
2019-05-03T07:45:50.372Z,304.45
2019-05-03T07:46:50.387Z,303.56
2019-05-03T07:47:51.128Z,304.32
2019-05-03T07:48:50.357Z,303.77
2019-05-03T07:49:50.338Z,303.68
2019-05-03T07:50:50.342Z,303.42
2019-05-03T07:51:50.317Z,303.87
2019-05-03T07:52:50.339Z,304.40
2019-05-03T07:53:50.292Z,304.54
2019-05-03T07:54:50.295Z,305.14
2019-05-03T07:55:50.275Z,305.73
2019-05-03T07:56:50.266Z,305.40
2019-05-03T07:57:50.247Z,305.52
2019-05-03T07:58:59.993Z,305.74
2019-05-03T07:59:51.228Z,306.23
2019-05-03T08:01:03.559Z,306.09
2019-05-03T08:01:51.211Z,305.48
2019-05-03T08:02:50.216Z,306.07
2019-05-03T08:03:50.187Z,306.16
2019-05-03T08:04:50.172Z,305.69
2019-05-03T08:05:50.170Z,304.94
2019-05-03T08:06:50.159Z,305.22
2019-05-03T08:07:50.164Z,304.57
2019-05-03T08:08:50.153Z,304.81
2019-05-03T08:09:50.126Z,304.33
2019-05-03T08:10:50.106Z,303.54
2019-05-03T08:11:50.099Z,303.18
2019-05-03T08:12:50.099Z,303.15
2019-05-03T08:13:50.105Z,303.84
2019-05-03T08:14:50.059Z,302.83
2019-05-03T08:15:50.051Z,302.73
2019-05-03T08:16:50.035Z,302.52
2019-05-03T08:17:50.025Z,302.53
2019-05-03T08:18:50.032Z,302.52
2019-05-03T08:19:50.035Z,302.80
2019-05-03T08:20:50.002Z,302.92
2019-05-03T08:21:50.012Z,303.96
2019-05-03T08:22:49.976Z,303.99
2019-05-03T08:23:49.959Z,303.92
2019-05-03T08:24:49.969Z,304.26
2019-05-03T08:25:50.937Z,304.55
2019-05-03T08:26:49.946Z,304.77
2019-05-03T08:27:49.944Z,304.89
2019-05-03T08:28:49.921Z,304.43
2019-05-03T08:29:49.921Z,304.23
2019-05-03T08:30:49.896Z,303.49
2019-05-03T08:31:49.879Z,304.01
2019-05-03T08:32:49.916Z,303.83
2019-05-03T08:33:49.877Z,304.11
2019-05-03T08:34:49.854Z,304.61
2019-05-03T08:35:49.850Z,304.33
2019-05-03T08:36:49.828Z,304.31
2019-05-03T08:37:49.837Z,304.79
2019-05-03T08:38:49.819Z,305.20
2019-05-03T08:39:49.846Z,306.23
2019-05-03T08:40:49.796Z,305.47
2019-05-03T08:41:49.779Z,305.71
2019-05-03T08:42:49.760Z,306.14
2019-05-03T08:43:49.751Z,305.98
2019-05-03T08:44:49.742Z,305.43
2019-05-03T08:45:49.747Z,305.52
2019-05-03T08:46:49.742Z,305.45
2019-05-03T08:47:49.713Z,305.29
2019-05-03T08:48:49.696Z,304.08
2019-05-03T08:49:49.704Z,304.39
2019-05-03T08:50:49.717Z,303.66
2019-05-03T08:51:49.677Z,302.92
2019-05-03T08:52:49.666Z,302.26
2019-05-03T08:53:49.661Z,301.99
2019-05-03T08:54:49.636Z,302.12
2019-05-03T08:55:49.626Z,301.90
2019-05-03T08:56:49.628Z,302.15
2019-05-03T08:57:49.620Z,301.11
2019-05-03T08:58:49.602Z,301.66
2019-05-03T08:59:49.597Z,301.50
2019-05-03T09:00:49.634Z,301.10
2019-05-03T09:01:49.558Z,300.56
2019-05-03T09:02:49.556Z,300.87
2019-05-03T09:03:49.552Z,300.84
2019-05-03T09:04:49.545Z,300.70
2019-05-03T09:05:49.561Z,299.98
2019-05-03T09:06:49.527Z,299.94
2019-05-03T09:07:50.884Z,300.82
2019-05-03T09:08:49.475Z,300.61
2019-05-03T09:09:49.469Z,299.87
2019-05-03T09:10:49.476Z,299.76
2019-05-03T09:11:49.462Z,299.80
2019-05-03T09:12:49.472Z,299.39
2019-05-03T09:13:49.439Z,299.71
2019-05-03T09:14:49.420Z,299.75
2019-05-03T09:15:49.405Z,299.86
2019-05-03T09:16:49.402Z,300.31
2019-05-03T09:17:49.483Z,300.61
2019-05-03T09:18:49.368Z,300.84
2019-05-03T09:19:49.361Z,300.52
2019-05-03T09:20:49.353Z,300.86
2019-05-03T09:21:49.342Z,301.02
2019-05-03T09:22:49.335Z,300.65
2019-05-03T09:23:49.346Z,300.38
2019-05-03T09:24:49.312Z,300.09
2019-05-03T09:25:49.468Z,300.27
2019-05-03T09:26:49.292Z,301.17
2019-05-03T09:27:49.294Z,301.03
2019-05-03T09:28:49.255Z,301.01
2019-05-03T09:29:49.256Z,301.02
2019-05-03T09:30:49.263Z,300.71
2019-05-03T09:31:49.241Z,300.47
2019-05-03T09:32:49.248Z,300.55
2019-05-03T09:33:49.249Z,299.84
2019-05-03T09:34:49.205Z,300.71
2019-05-03T09:35:49.189Z,301.01
2019-05-03T09:36:49.192Z,301.90
2019-05-03T09:37:49.177Z,301.85
2019-05-03T09:38:49.174Z,302.39
2019-05-03T09:39:49.157Z,303.31
2019-05-03T09:40:51.867Z,302.99
2019-05-03T09:41:49.121Z,303.11
2019-05-03T09:42:49.132Z,303.30
2019-05-03T09:43:49.132Z,304.12
2019-05-03T09:44:49.092Z,303.92
2019-05-03T09:45:49.092Z,303.55
2019-05-03T09:46:49.068Z,303.45
2019-05-03T09:47:49.058Z,303.68
2019-05-03T09:48:49.053Z,303.64
2019-05-03T09:49:49.064Z,304.31
2019-05-03T09:50:49.029Z,304.61
2019-05-03T09:51:49.017Z,304.82
2019-05-03T09:52:48.999Z,305.19
2019-05-03T09:53:48.987Z,304.67
2019-05-03T09:54:49.011Z,305.30
2019-05-03T09:55:48.976Z,305.99
2019-05-03T09:56:56.074Z,305.56
2019-05-03T09:57:49.950Z,305.73
2019-05-03T09:58:48.937Z,305.72
2019-05-03T09:59:57.345Z,304.85
2019-05-03T10:00:49.926Z,304.03
2019-05-03T10:01:48.916Z,303.33
2019-05-03T10:02:48.901Z,302.66
2019-05-03T10:03:48.900Z,301.78
2019-05-03T10:04:48.918Z,302.33
2019-05-03T10:05:48.878Z,301.00
2019-05-03T10:06:48.890Z,301.52
2019-05-03T10:07:48.846Z,301.13
2019-05-03T10:08:48.851Z,300.40
2019-05-03T10:09:48.833Z,301.06
2019-05-03T10:10:48.836Z,301.56
2019-05-03T10:11:48.795Z,301.92
2019-05-03T10:12:48.787Z,302.84
2019-05-03T10:13:49.078Z,302.37
2019-05-03T10:14:48.789Z,302.38
2019-05-03T10:15:48.799Z,302.72
2019-05-03T10:16:48.764Z,303.85
2019-05-03T10:17:48.751Z,303.01
2019-05-03T10:18:48.726Z,303.50
2019-05-03T10:19:48.715Z,303.94
2019-05-03T10:20:48.733Z,303.17
2019-05-03T10:21:48.709Z,303.65
2019-05-03T10:22:48.683Z,303.45
2019-05-03T10:23:48.683Z,303.10
2019-05-03T10:24:48.675Z,302.02
2019-05-03T10:25:48.672Z,302.09
2019-05-03T10:26:48.647Z,301.58
2019-05-03T10:27:48.640Z,300.90
2019-05-03T10:28:48.638Z,300.08
2019-05-03T10:29:48.625Z,299.84
2019-05-03T10:30:48.626Z,300.20
2019-05-03T10:31:48.597Z,300.66
2019-05-03T10:32:48.576Z,299.99
2019-05-03T10:33:48.571Z,301.49
2019-05-03T10:34:48.573Z,300.99
2019-05-03T10:35:48.575Z,301.16
2019-05-03T10:36:48.546Z,300.58
2019-05-03T10:37:48.534Z,301.27
2019-05-03T10:38:48.524Z,301.35
2019-05-03T10:39:48.517Z,301.24
2019-05-03T10:40:48.528Z,301.13
2019-05-03T10:41:48.499Z,301.27
2019-05-03T10:42:48.473Z,300.80
2019-05-03T10:43:48.459Z,300.25
2019-05-03T10:44:48.454Z,300.18
2019-05-03T10:45:48.445Z,300.10
2019-05-03T10:46:48.453Z,299.06
2019-05-03T10:47:48.427Z,299.41
2019-05-03T10:48:48.423Z,299.28
2019-05-03T10:49:48.419Z,299.17
2019-05-03T10:50:50.874Z,299.25
2019-05-03T10:51:48.394Z,298.85
2019-05-03T10:52:48.391Z,298.88
2019-05-03T10:53:48.363Z,298.02
2019-05-03T10:54:48.346Z,298.12
2019-05-03T10:55:48.334Z,298.69
2019-05-03T10:56:48.346Z,298.39
2019-05-03T10:57:48.314Z,298.24
2019-05-03T10:58:48.317Z,299.24
2019-05-03T10:59:48.303Z,298.73
2019-05-03T11:00:52.722Z,298.57
2019-05-03T11:01:49.290Z,298.65
2019-05-03T11:02:48.263Z,298.97
2019-05-03T11:03:48.248Z,299.09
2019-05-03T11:04:48.238Z,299.48
2019-05-03T11:05:48.229Z,298.89
2019-05-03T11:06:48.246Z,299.58
2019-05-03T11:07:48.212Z,299.45
2019-05-03T11:08:48.197Z,299.57
2019-05-03T11:09:52.252Z,299.30
2019-05-03T11:10:48.177Z,299.38
2019-05-03T11:11:48.206Z,299.54
2019-05-03T11:12:48.159Z,300.21
2019-05-03T11:13:48.152Z,299.75
2019-05-03T11:14:48.126Z,299.16
2019-05-03T11:15:48.115Z,298.89
2019-05-03T11:16:48.128Z,299.73
2019-05-03T11:17:48.124Z,299.53
2019-05-03T11:18:48.097Z,299.66
2019-05-03T11:19:48.085Z,299.70
2019-05-03T11:20:48.076Z,299.87
2019-05-03T11:21:48.092Z,300.02
2019-05-03T11:22:48.045Z,299.87
2019-05-03T11:23:48.026Z,300.28
2019-05-03T11:24:48.025Z,300.38
2019-05-03T11:25:48.016Z,300.59
2019-05-03T11:26:48.011Z,301.51
2019-05-03T11:27:47.998Z,301.45
2019-05-03T11:28:47.979Z,301.79
2019-05-03T11:29:47.977Z,302.45
2019-05-03T11:30:55.674Z,302.92
2019-05-03T11:31:48.953Z,302.55
2019-05-03T11:32:47.963Z,303.46
2019-05-03T11:33:47.927Z,303.41
2019-05-03T11:34:47.912Z,303.25
2019-05-03T11:35:47.897Z,303.40
2019-05-03T11:36:47.887Z,303.51
2019-05-03T11:37:47.891Z,303.36
2019-05-03T11:38:47.916Z,302.80
2019-05-03T11:39:47.870Z,302.15
2019-05-03T11:40:47.847Z,302.95
2019-05-03T11:41:47.839Z,302.48
2019-05-03T11:42:47.851Z,302.12
2019-05-03T11:43:47.831Z,301.55
2019-05-03T11:44:47.818Z,300.96
2019-05-03T11:45:47.821Z,300.96
2019-05-03T11:46:47.772Z,300.98
2019-05-03T11:47:47.793Z,301.12
2019-05-03T11:48:47.748Z,301.06
2019-05-03T11:49:47.755Z,300.42
2019-05-03T11:50:47.759Z,301.08
2019-05-03T11:51:47.735Z,300.37
2019-05-03T11:52:47.720Z,301.42
2019-05-03T11:53:47.758Z,301.23
2019-05-03T11:54:47.690Z,301.56
2019-05-03T11:55:47.682Z,302.25
2019-05-03T11:56:47.676Z,302.33
2019-05-03T11:57:47.671Z,303.28
2019-05-03T11:58:47.650Z,302.56
2019-05-03T11:59:47.662Z,302.56
2019-05-03T12:00:47.623Z,302.82
2019-05-03T12:01:47.615Z,303.97
2019-05-03T12:02:47.620Z,303.42
2019-05-03T12:03:47.597Z,304.33
2019-05-03T12:04:47.590Z,303.75
2019-05-03T12:05:47.604Z,304.63
2019-05-03T12:06:47.572Z,304.07
2019-05-03T12:07:47.559Z,304.02
2019-05-03T12:08:47.539Z,303.98
2019-05-03T12:09:47.531Z,303.33
2019-05-03T12:10:55.250Z,304.07
2019-05-03T12:11:48.522Z,304.38
2019-05-03T12:12:47.498Z,304.19
2019-05-03T12:13:47.491Z,304.31
2019-05-03T12:14:47.498Z,304.07
2019-05-03T12:15:47.508Z,303.87
2019-05-03T12:17:54.205Z,303.45
2019-05-03T12:18:53.418Z,303.37
2019-05-03T12:19:49.624Z,303.39
2019-05-03T12:20:48.493Z,303.87
2019-05-03T12:21:48.046Z,303.92
2019-05-03T12:22:47.930Z,303.66
2019-05-03T12:23:48.051Z,302.38
2019-05-03T12:24:48.091Z,302.90
2019-05-03T12:25:47.847Z,301.97
2019-05-03T12:26:47.359Z,302.41
2019-05-03T12:27:47.347Z,301.73
2019-05-03T12:28:47.359Z,300.69
2019-05-03T12:29:47.334Z,300.68